createdAt,value
2022-08-17T00:00:44.030Z,98.70
2022-08-17T00:01:53.253Z,98.37
2022-08-17T00:03:06.375Z,98.10
2022-08-17T00:04:11.674Z,98.10
2022-08-17T00:05:15.708Z,97.94
2022-08-17T00:06:29.391Z,98.01
2022-08-17T00:07:31.105Z,97.44
2022-08-17T00:08:36.906Z,97.49
2022-08-17T00:09:38.659Z,97.31
2022-08-17T00:10:41.920Z,97.19
2022-08-17T00:12:35.510Z,97.28
2022-08-17T00:13:12.510Z,97.30
2022-08-17T00:14:17.745Z,97.32
2022-08-17T00:15:21.598Z,97.63
2022-08-17T00:16:55.893Z,97.66
2022-08-17T00:17:53.206Z,98.15
2022-08-17T00:19:07.527Z,98.11
2022-08-17T00:20:12.269Z,98.23
2022-08-17T00:21:17.080Z,98.17
2022-08-17T00:22:35.122Z,98.23
2022-08-17T00:23:39.369Z,98.34
2022-08-17T00:24:48.660Z,98.06
2022-08-17T00:25:50.694Z,97.92
2022-08-17T00:26:52.405Z,97.84
2022-08-17T00:27:54.133Z,97.56
2022-08-17T00:28:56.938Z,97.56
2022-08-17T00:29:58.627Z,97.64
2022-08-17T00:31:01.116Z,97.87
2022-08-17T00:33:11.959Z,97.80
2022-08-17T00:33:30.686Z,98.30
2022-08-17T00:34:32.720Z,98.23
2022-08-17T00:35:35.433Z,98.35
2022-08-17T00:36:37.797Z,98.59
2022-08-17T00:37:40.309Z,98.74
2022-08-17T00:38:42.350Z,98.59
2022-08-17T00:39:44.316Z,98.29
2022-08-17T00:40:50.028Z,97.83
2022-08-17T00:41:53.580Z,97.62
2022-08-17T00:42:55.499Z,97.26
2022-08-17T00:44:03.232Z,97.13
2022-08-17T00:45:11.164Z,97.16
2022-08-17T00:46:28.174Z,97.08
2022-08-17T00:47:30.173Z,96.98
2022-08-17T00:48:32.468Z,96.72
2022-08-17T00:49:34.214Z,96.65
2022-08-17T00:50:37.335Z,96.51
2022-08-17T00:51:54.993Z,96.11
2022-08-17T00:52:58.788Z,96.32
2022-08-17T00:54:19.066Z,96.21
2022-08-17T00:55:22.296Z,96.41
2022-08-17T00:56:31.605Z,96.41
2022-08-17T00:57:40.217Z,96.11
2022-08-17T00:58:42.109Z,95.63
2022-08-17T01:00:01.986Z,95.72
2022-08-17T01:01:08.613Z,95.26
2022-08-17T01:02:15.237Z,95.25
2022-08-17T01:03:27.657Z,94.68
2022-08-17T01:04:32.416Z,94.54
2022-08-17T01:05:38.736Z,94.04
2022-08-17T01:06:49.445Z,93.62
2022-08-17T01:07:51.738Z,93.28
2022-08-17T01:08:57.586Z,93.56
2022-08-17T01:10:06.071Z,93.42
2022-08-17T01:11:08.362Z,93.44
2022-08-17T01:12:12.144Z,93.74
2022-08-17T01:13:14.277Z,94.04
2022-08-17T01:14:16.056Z,93.88
2022-08-17T01:15:17.884Z,94.01
2022-08-17T01:16:26.725Z,93.96
2022-08-17T01:17:28.546Z,93.84
2022-08-17T01:18:32.277Z,93.87
2022-08-17T01:19:39.254Z,93.97
2022-08-17T01:20:48.970Z,93.67
2022-08-17T01:22:02.726Z,93.53
2022-08-17T01:23:04.814Z,93.31
2022-08-17T01:24:07.393Z,93.30
2022-08-17T01:25:12.698Z,93.40
2022-08-17T01:26:14.703Z,93.42
2022-08-17T01:27:18.454Z,92.85
2022-08-17T01:28:52.568Z,92.32
2022-08-17T01:29:51.119Z,91.77
2022-08-17T01:30:58.066Z,91.70
2022-08-17T01:32:06.035Z,91.12
2022-08-17T01:33:11.377Z,90.70
2022-08-17T01:34:16.554Z,90.31
2022-08-17T01:35:18.243Z,90.00
2022-08-17T01:36:20.236Z,90.09
2022-08-17T01:37:31.177Z,89.80
2022-08-17T01:38:37.208Z,89.56
2022-08-17T01:39:45.728Z,89.61
2022-08-17T01:40:57.564Z,89.56
2022-08-17T01:42:09.403Z,89.44
2022-08-17T01:43:25.034Z,89.84
2022-08-17T01:44:27.812Z,89.62
2022-08-17T01:45:33.805Z,89.81
2022-08-17T01:46:38.559Z,90.15
2022-08-17T01:47:41.749Z,90.08
2022-08-17T01:48:47.261Z,90.05
2022-08-17T01:49:49.265Z,89.78
2022-08-17T01:50:51.973Z,89.77
2022-08-17T01:51:54.742Z,89.70
2022-08-17T01:53:05.977Z,89.46
2022-08-17T01:54:12.828Z,89.54
2022-08-17T01:55:25.880Z,89.60
2022-08-17T01:56:32.575Z,89.66
2022-08-17T01:57:34.371Z,89.78
2022-08-17T01:58:37.858Z,89.43
2022-08-17T01:59:39.722Z,89.72
2022-08-17T02:00:59.465Z,89.55
2022-08-17T02:02:04.845Z,89.50
2022-08-17T02:03:08.246Z,89.79
2022-08-17T02:04:11.325Z,89.67
2022-08-17T02:05:13.187Z,89.66
2022-08-17T02:06:27.284Z,89.65
2022-08-17T02:07:29.980Z,89.67
2022-08-17T02:08:39.165Z,89.86
2022-08-17T02:09:57.362Z,90.18
2022-08-17T02:11:04.302Z,90.11
2022-08-17T02:12:38.865Z,90.40
2022-08-17T02:13:35.834Z,90.37
2022-08-17T02:14:37.550Z,90.11
2022-08-17T02:15:41.483Z,89.92
2022-08-17T02:16:43.385Z,89.91
2022-08-17T02:17:45.304Z,89.98
2022-08-17T02:18:46.997Z,89.85
2022-08-17T02:19:48.766Z,89.60
2022-08-17T02:20:50.430Z,89.39
2022-08-17T02:21:54.069Z,89.70
2022-08-17T02:22:55.842Z,89.56
2022-08-17T02:23:57.622Z,89.55
2022-08-17T02:25:02.573Z,89.43
2022-08-17T02:26:05.753Z,89.45
2022-08-17T02:27:07.611Z,89.76
2022-08-17T02:28:10.280Z,90.01
2022-08-17T02:29:12.079Z,89.71
2022-08-17T02:31:01.816Z,89.84
2022-08-17T02:31:37.918Z,90.15
2022-08-17T02:32:40.757Z,89.91
2022-08-17T02:33:43.791Z,90.24
2022-08-17T02:34:46.044Z,90.12
2022-08-17T02:35:48.082Z,90.09
2022-08-17T02:36:49.734Z,89.65
2022-08-17T02:37:55.462Z,90.01
2022-08-17T02:38:58.559Z,89.66
2022-08-17T02:40:00.502Z,89.65
2022-08-17T02:41:03.146Z,89.77
2022-08-17T02:42:05.421Z,89.57
2022-08-17T02:43:08.811Z,89.41
2022-08-17T02:44:11.351Z,89.58
2022-08-17T02:45:19.582Z,89.71
2022-08-17T02:46:21.258Z,89.92
2022-08-17T02:47:23.512Z,90.18
2022-08-17T02:48:30.824Z,90.07
2022-08-17T02:49:33.597Z,90.01
2022-08-17T02:50:35.316Z,89.93
2022-08-17T02:51:37.292Z,90.17
2022-08-17T02:52:43.666Z,89.68
2022-08-17T02:53:46.743Z,89.61
2022-08-17T02:54:48.431Z,90.04
2022-08-17T02:55:50.126Z,90.20
2022-08-17T02:56:53.479Z,90.15
2022-08-17T02:57:55.982Z,90.16
2022-08-17T02:58:58.630Z,90.20
2022-08-17T03:00:00.273Z,90.64
2022-08-17T03:01:03.261Z,90.74
2022-08-17T03:02:08.328Z,90.84
2022-08-17T03:03:11.081Z,90.63
2022-08-17T03:04:12.838Z,91.08
2022-08-17T03:05:18.252Z,91.35
2022-08-17T03:06:19.894Z,90.99
2022-08-17T03:07:21.609Z,90.72
2022-08-17T03:08:23.834Z,90.31
2022-08-17T03:09:25.570Z,90.39
2022-08-17T03:10:28.244Z,90.54
2022-08-17T03:11:29.942Z,90.61
2022-08-17T03:12:41.650Z,90.60
2022-08-17T03:13:43.281Z,90.64
2022-08-17T03:14:44.943Z,90.94
2022-08-17T03:15:47.166Z,91.06
2022-08-17T03:16:48.831Z,90.90
2022-08-17T03:17:52.063Z,91.19
2022-08-17T03:18:55.026Z,91.11
2022-08-17T03:19:56.719Z,91.37
2022-08-17T03:21:04.131Z,91.56
2022-08-17T03:22:35.405Z,91.80
2022-08-17T03:23:31.103Z,91.80
2022-08-17T03:24:32.896Z,92.00
2022-08-17T03:25:38.604Z,92.05
2022-08-17T03:26:40.382Z,92.25
2022-08-17T03:27:42.168Z,92.26
2022-08-17T03:28:49.825Z,92.53
2022-08-17T03:29:51.471Z,92.64
2022-08-17T03:30:53.352Z,92.72
2022-08-17T03:31:55.032Z,92.88
2022-08-17T03:33:00.810Z,92.99
2022-08-17T03:34:02.480Z,93.18
2022-08-17T03:35:04.438Z,93.39
2022-08-17T03:36:07.002Z,93.41
2022-08-17T03:37:09.461Z,93.78
2022-08-17T03:38:15.364Z,94.09
2022-08-17T03:39:17.897Z,94.13
2022-08-17T03:40:34.449Z,94.18
2022-08-17T03:41:42.054Z,94.24
2022-08-17T03:42:44.274Z,94.42
2022-08-17T03:43:46.044Z,94.59
2022-08-17T03:44:57.142Z,94.61
2022-08-17T03:46:28.810Z,94.68
2022-08-17T03:47:56.091Z,94.74
2022-08-17T03:49:16.684Z,95.20
2022-08-17T03:50:19.046Z,95.19
2022-08-17T03:51:42.692Z,95.67
2022-08-17T03:53:02.903Z,95.79
2022-08-17T03:54:23.656Z,96.25
2022-08-17T03:55:43.613Z,96.42
2022-08-17T03:56:55.115Z,96.80
2022-08-17T03:57:56.800Z,97.18
2022-08-17T03:58:58.493Z,97.31
2022-08-17T04:00:00.413Z,97.11
2022-08-17T04:01:02.323Z,97.28
2022-08-17T04:02:11.075Z,97.44
2022-08-17T04:03:13.847Z,97.65
2022-08-17T04:04:16.833Z,97.95
2022-08-17T04:05:18.540Z,97.88
2022-08-17T04:06:20.808Z,97.85
2022-08-17T04:07:26.108Z,98.06
2022-08-17T04:08:29.103Z,97.85
2022-08-17T04:09:31.125Z,98.02
2022-08-17T04:10:33.975Z,97.98
2022-08-17T04:11:43.274Z,98.47
2022-08-17T04:12:52.999Z,98.82
2022-08-17T04:13:56.101Z,98.97
2022-08-17T04:14:58.298Z,98.98
2022-08-17T04:16:00.026Z,98.97
2022-08-17T04:17:02.538Z,98.69
2022-08-17T04:18:04.401Z,98.77
2022-08-17T04:19:06.318Z,99.16
2022-08-17T04:20:08.573Z,99.03
2022-08-17T04:21:10.636Z,99.53
2022-08-17T04:22:12.378Z,99.51
2022-08-17T04:23:36.569Z,99.88
2022-08-17T04:24:38.311Z,99.96
2022-08-17T04:25:44.462Z,100.00
2022-08-17T04:26:53.817Z,100.00
2022-08-17T04:27:57.695Z,100.00
2022-08-17T04:28:59.893Z,100.00
2022-08-17T04:30:02.195Z,100.00
2022-08-17T04:31:04.738Z,100.00
2022-08-17T04:32:06.797Z,100.00
2022-08-17T04:33:18.345Z,100.00
2022-08-17T04:34:20.261Z,100.00
2022-08-17T04:35:25.957Z,100.00
2022-08-17T04:36:28.357Z,100.00
2022-08-17T04:37:30.220Z,100.00
2022-08-17T04:38:35.792Z,100.00
2022-08-17T04:39:37.519Z,100.00
2022-08-17T04:40:58.028Z,100.00
2022-08-17T04:42:17.030Z,100.00
2022-08-17T04:43:22.198Z,100.00
2022-08-17T04:44:30.406Z,100.00
2022-08-17T04:45:55.478Z,100.00
2022-08-17T04:46:58.518Z,100.00
2022-08-17T04:48:01.227Z,100.00
2022-08-17T04:49:06.739Z,100.00
2022-08-17T04:50:09.280Z,100.00
2022-08-17T04:51:14.947Z,100.00
2022-08-17T04:52:29.775Z,100.00
2022-08-17T04:53:44.476Z,100.00
2022-08-17T04:54:46.174Z,100.00
2022-08-17T04:55:48.451Z,100.00
2022-08-17T04:56:50.166Z,100.00
2022-08-17T04:57:51.855Z,100.00
2022-08-17T04:58:56.784Z,100.00
2022-08-17T04:59:58.480Z,100.00
2022-08-17T05:01:00.486Z,100.00
2022-08-17T05:02:02.326Z,100.00
2022-08-17T05:03:04.956Z,100.00
2022-08-17T05:04:32.121Z,100.00
2022-08-17T05:05:36.455Z,100.00
2022-08-17T05:06:38.233Z,100.00
2022-08-17T05:07:39.961Z,100.00
2022-08-17T05:08:42.122Z,100.00
2022-08-17T05:09:43.981Z,100.00
2022-08-17T05:10:46.965Z,100.00
2022-08-17T05:11:48.844Z,100.00
2022-08-17T05:13:15.804Z,100.00
2022-08-17T05:14:17.510Z,100.00
2022-08-17T05:15:19.249Z,100.00
2022-08-17T05:16:23.583Z,100.00
2022-08-17T05:17:25.295Z,100.00
2022-08-17T05:18:29.570Z,100.00
2022-08-17T05:19:31.336Z,100.00
2022-08-17T05:20:34.970Z,100.00
2022-08-17T05:21:36.688Z,100.00
2022-08-17T05:22:51.275Z,100.00
2022-08-17T05:23:56.395Z,100.00
2022-08-17T05:24:58.657Z,100.00
2022-08-17T05:26:04.398Z,100.00
2022-08-17T05:27:09.640Z,100.00
2022-08-17T05:28:19.059Z,100.00
2022-08-17T05:29:33.790Z,100.00
2022-08-17T05:30:40.421Z,100.00
2022-08-17T05:31:42.151Z,100.00
2022-08-17T05:33:00.308Z,100.00
2022-08-17T05:34:02.062Z,100.00
2022-08-17T05:35:05.359Z,100.00
2022-08-17T05:36:09.616Z,99.78
2022-08-17T05:37:31.301Z,99.43
2022-08-17T05:38:33.194Z,98.91
2022-08-17T05:39:34.898Z,98.83
2022-08-17T05:40:37.151Z,98.64
2022-08-17T05:41:39.220Z,98.56
2022-08-17T05:42:41.505Z,98.09
2022-08-17T05:43:43.351Z,97.62
2022-08-17T05:44:45.176Z,97.17
2022-08-17T05:46:13.297Z,96.82
2022-08-17T05:47:15.249Z,96.06
2022-08-17T05:48:17.041Z,95.67
2022-08-17T05:49:28.349Z,95.39
2022-08-17T05:50:45.755Z,95.21
2022-08-17T05:52:08.498Z,94.86
2022-08-17T05:53:32.789Z,94.85
2022-08-17T05:54:43.375Z,93.88
2022-08-17T05:56:29.465Z,93.42
2022-08-17T05:57:56.061Z,92.63
2022-08-17T05:59:18.649Z,92.47
2022-08-17T06:00:30.586Z,92.01
2022-08-17T06:01:48.591Z,91.46
2022-08-17T06:02:56.000Z,90.97
2022-08-17T06:04:22.573Z,91.22
2022-08-17T06:05:55.393Z,91.38
2022-08-17T06:07:21.704Z,89.84
2022-08-17T06:08:54.021Z,89.75
2022-08-17T06:10:14.707Z,89.75
2022-08-17T06:11:32.838Z,89.73
2022-08-17T06:12:56.195Z,89.35
2022-08-17T06:14:30.598Z,88.69
2022-08-17T06:15:52.618Z,88.77
2022-08-17T06:17:02.357Z,88.48
2022-08-17T06:18:08.178Z,87.94
2022-08-17T06:19:48.656Z,87.42
2022-08-17T06:20:53.484Z,87.85
2022-08-17T06:21:55.953Z,86.84
2022-08-17T06:23:08.701Z,86.95
2022-08-17T06:24:35.659Z,87.73
2022-08-17T06:25:49.680Z,87.32
2022-08-17T06:26:54.763Z,86.10
2022-08-17T06:28:08.657Z,85.58
2022-08-17T06:29:41.211Z,85.24
2022-08-17T06:31:00.743Z,84.76
2022-08-17T06:32:05.000Z,84.72
2022-08-17T06:33:17.370Z,84.16
2022-08-17T06:34:20.815Z,83.59
2022-08-17T06:35:34.143Z,82.88
2022-08-17T06:36:53.961Z,83.12
2022-08-17T06:38:37.119Z,83.02
2022-08-17T06:39:37.691Z,81.77
2022-08-17T06:41:13.762Z,80.19
2022-08-17T06:43:00.819Z,80.72
2022-08-17T06:44:43.179Z,80.77
2022-08-17T06:46:11.462Z,79.54
2022-08-17T06:47:28.162Z,79.38
2022-08-17T06:49:09.041Z,79.48
2022-08-17T06:50:35.917Z,78.56
2022-08-17T06:51:40.603Z,77.41
2022-08-17T06:52:57.670Z,78.12
2022-08-17T06:54:14.347Z,77.98
2022-08-17T06:55:26.383Z,77.37
2022-08-17T06:56:53.296Z,77.01
2022-08-17T06:58:05.330Z,76.49
2022-08-17T06:59:23.661Z,76.12
2022-08-17T07:00:37.058Z,76.63
2022-08-17T07:01:42.125Z,75.75
2022-08-17T07:02:58.794Z,76.13
2022-08-17T07:04:12.106Z,76.61
2022-08-17T07:05:18.322Z,76.18
2022-08-17T07:06:32.433Z,76.47
2022-08-17T07:08:04.861Z,76.06
2022-08-17T07:09:18.689Z,75.25
2022-08-17T07:10:23.645Z,74.80
2022-08-17T07:11:30.969Z,74.20
2022-08-17T07:12:39.405Z,74.66
2022-08-17T07:14:05.878Z,72.64
2022-08-17T07:15:25.939Z,73.31
2022-08-17T07:16:48.952Z,73.82
2022-08-17T07:17:50.883Z,73.78
2022-08-17T07:18:56.432Z,72.65
2022-08-17T07:20:08.217Z,71.76
2022-08-17T07:21:26.912Z,72.51
2022-08-17T07:23:09.049Z,73.03
2022-08-17T07:24:43.174Z,73.83
2022-08-17T07:25:44.887Z,72.87
2022-08-17T07:26:49.516Z,73.01
2022-08-17T07:27:55.882Z,72.71
2022-08-17T07:29:00.706Z,73.32
2022-08-17T07:30:10.862Z,72.36
2022-08-17T07:31:14.292Z,72.79
2022-08-17T07:32:20.730Z,72.84
2022-08-17T07:33:34.219Z,72.14
2022-08-17T07:35:08.507Z,70.72
2022-08-17T07:36:29.594Z,71.05
2022-08-17T07:37:33.325Z,72.03
2022-08-17T07:38:35.637Z,70.96
2022-08-17T07:39:37.446Z,71.02
2022-08-17T07:41:05.368Z,70.55
2022-08-17T07:42:10.464Z,70.24
2022-08-17T07:43:23.074Z,70.70
2022-08-17T07:44:25.418Z,71.12
2022-08-17T07:45:45.730Z,71.52
2022-08-17T07:47:11.690Z,71.62
2022-08-17T07:48:21.382Z,72.57
2022-08-17T07:49:22.980Z,72.27
2022-08-17T07:50:30.050Z,71.45
2022-08-17T07:51:36.478Z,70.23
2022-08-17T07:52:50.691Z,70.43
2022-08-17T07:54:14.561Z,70.31
2022-08-17T07:55:29.469Z,68.81
2022-08-17T07:56:42.266Z,69.35
2022-08-17T07:57:57.439Z,69.06
2022-08-17T07:59:12.543Z,68.86
2022-08-17T08:00:19.770Z,68.36
2022-08-17T08:01:41.788Z,68.53
2022-08-17T08:02:47.307Z,69.00
2022-08-17T08:03:52.765Z,69.17
2022-08-17T08:05:06.788Z,68.45
2022-08-17T08:06:24.351Z,66.54
2022-08-17T08:07:32.042Z,66.55
2022-08-17T08:08:51.169Z,66.78
2022-08-17T08:10:07.809Z,68.22
2022-08-17T08:11:15.411Z,68.92
2022-08-17T08:12:34.919Z,68.26
2022-08-17T08:13:43.574Z,67.97
2022-08-17T08:14:58.716Z,66.12
2022-08-17T08:16:27.578Z,65.62
2022-08-17T08:17:36.394Z,65.20
2022-08-17T08:18:54.109Z,64.44
2022-08-17T08:20:00.492Z,64.36
2022-08-17T08:21:33.640Z,64.25
2022-08-17T08:22:46.366Z,64.44
2022-08-17T08:23:57.492Z,64.10
2022-08-17T08:25:21.400Z,64.65
2022-08-17T08:26:37.578Z,64.51
2022-08-17T08:27:54.423Z,64.06
2022-08-17T08:29:11.334Z,64.46
2022-08-17T08:30:18.459Z,64.55
2022-08-17T08:31:47.670Z,65.00
2022-08-17T08:33:21.038Z,65.28
2022-08-17T08:35:02.826Z,64.88
2022-08-17T08:36:59.326Z,64.80
2022-08-17T08:38:13.534Z,65.07
2022-08-17T08:39:24.761Z,65.42
2022-08-17T08:40:45.547Z,65.92
2022-08-17T08:42:08.856Z,65.61
2022-08-17T08:43:36.263Z,65.48
2022-08-17T08:45:00.264Z,64.90
2022-08-17T08:46:29.594Z,65.30
2022-08-17T08:47:41.572Z,65.18
2022-08-17T08:49:10.232Z,64.51
2022-08-17T08:50:37.820Z,64.33
2022-08-17T08:51:57.508Z,64.44
2022-08-17T08:53:14.316Z,64.05
2022-08-17T08:54:35.151Z,62.91
2022-08-17T08:55:50.832Z,62.33
2022-08-17T08:57:33.950Z,62.61
2022-08-17T08:58:50.672Z,63.07
2022-08-17T09:00:01.420Z,62.71
2022-08-17T09:01:27.134Z,62.25
2022-08-17T09:03:17.838Z,62.52
2022-08-17T09:05:10.670Z,61.13
2022-08-17T09:06:32.292Z,62.05
2022-08-17T09:08:01.590Z,62.18
2022-08-17T09:09:29.234Z,60.29
2022-08-17T09:10:47.911Z,61.09
2022-08-17T09:12:07.970Z,61.22
2022-08-17T09:13:28.463Z,61.12
2022-08-17T09:15:09.438Z,60.93
2022-08-17T09:16:23.139Z,59.20
2022-08-17T09:17:43.624Z,60.02
2022-08-17T09:19:00.040Z,60.08
2022-08-17T09:20:27.995Z,58.71
2022-08-17T09:21:54.780Z,59.28
2022-08-17T09:23:15.358Z,58.92
2022-08-17T09:24:35.742Z,58.44
2022-08-17T09:25:54.850Z,59.38
2022-08-17T09:27:04.414Z,60.37
2022-08-17T09:28:19.301Z,59.39
2022-08-17T09:29:25.910Z,57.72
2022-08-17T09:30:43.582Z,58.14
2022-08-17T09:31:55.606Z,57.69
2022-08-17T09:33:02.278Z,57.57
2022-08-17T09:34:33.210Z,57.03
2022-08-17T09:35:48.257Z,56.93
2022-08-17T09:36:57.298Z,57.20
2022-08-17T09:38:11.244Z,57.44
2022-08-17T09:39:36.330Z,57.56
2022-08-17T09:40:47.661Z,58.28
2022-08-17T09:42:05.219Z,57.01
2022-08-17T09:43:37.637Z,56.04
2022-08-17T09:45:10.291Z,55.13
2022-08-17T09:46:20.318Z,55.91
2022-08-17T09:47:50.264Z,55.88
2022-08-17T09:49:03.588Z,55.61
2022-08-17T09:51:04.246Z,56.15
2022-08-17T09:51:57.092Z,57.20
2022-08-17T09:52:59.654Z,56.69
2022-08-17T09:54:37.124Z,56.01
2022-08-17T09:55:52.581Z,56.01
2022-08-17T09:57:31.448Z,56.53
2022-08-17T09:58:50.440Z,57.58
2022-08-17T10:00:17.265Z,57.16
2022-08-17T10:01:35.425Z,58.44
2022-08-17T10:03:09.612Z,59.10
2022-08-17T10:04:41.044Z,57.38
2022-08-17T10:05:56.875Z,56.78
2022-08-17T10:07:13.179Z,55.70
2022-08-17T10:08:46.999Z,56.00
2022-08-17T10:10:01.545Z,56.51
2022-08-17T10:11:33.406Z,56.21
2022-08-17T10:12:50.129Z,55.64
2022-08-17T10:14:36.822Z,56.01
2022-08-17T10:15:56.444Z,56.81
2022-08-17T10:17:24.127Z,57.21
2022-08-17T10:18:39.912Z,59.13
2022-08-17T10:20:03.173Z,57.82
2022-08-17T10:21:31.649Z,57.42
2022-08-17T10:23:12.262Z,58.36
2022-08-17T10:25:20.975Z,58.38
2022-08-17T10:26:24.854Z,58.51
2022-08-17T10:27:41.574Z,58.64
2022-08-17T10:29:01.615Z,59.04
2022-08-17T10:30:08.234Z,58.52
2022-08-17T10:31:45.545Z,59.82
2022-08-17T10:33:15.627Z,58.04
2022-08-17T10:34:23.275Z,59.39
2022-08-17T10:35:53.775Z,57.54
2022-08-17T10:37:25.284Z,58.33
2022-08-17T10:38:50.510Z,55.47
2022-08-17T10:39:57.402Z,54.71
2022-08-17T10:41:27.050Z,55.17
2022-08-17T10:42:44.418Z,55.57
2022-08-17T10:43:55.857Z,55.88
2022-08-17T10:45:21.660Z,55.28
2022-08-17T10:46:52.142Z,55.07
2022-08-17T10:48:06.245Z,56.70
2022-08-17T10:49:17.293Z,55.59
2022-08-17T10:50:49.737Z,55.90
2022-08-17T10:51:58.359Z,55.33
2022-08-17T10:53:00.069Z,53.93
2022-08-17T10:54:03.389Z,52.90
2022-08-17T10:55:13.926Z,53.14
2022-08-17T10:56:17.423Z,51.88
2022-08-17T10:57:34.347Z,51.60
2022-08-17T10:58:59.162Z,50.41
2022-08-17T11:00:42.425Z,50.39
2022-08-17T11:02:04.182Z,50.63
2022-08-17T11:03:21.214Z,49.28
2022-08-17T11:04:34.452Z,49.02
2022-08-17T11:05:56.200Z,48.33
2022-08-17T11:07:43.854Z,49.27
2022-08-17T11:09:09.810Z,48.87
2022-08-17T11:10:42.240Z,50.46
2022-08-17T11:12:07.431Z,48.96
2022-08-17T11:13:44.899Z,48.99
2022-08-17T11:15:26.116Z,48.98
2022-08-17T11:16:42.847Z,47.53
2022-08-17T11:18:22.739Z,49.11
2022-08-17T11:19:38.386Z,47.16
2022-08-17T11:21:13.548Z,47.29
2022-08-17T11:23:02.596Z,46.23
2022-08-17T11:24:14.965Z,46.12
2022-08-17T11:25:21.106Z,44.74
2022-08-17T11:26:27.258Z,45.39
2022-08-17T11:27:36.606Z,44.88
2022-08-17T11:28:52.582Z,44.22
2022-08-17T11:30:20.591Z,42.91
2022-08-17T11:31:40.193Z,43.15
2022-08-17T11:32:48.804Z,44.34
2022-08-17T11:34:13.279Z,44.66
2022-08-17T11:35:20.915Z,43.64
2022-08-17T11:36:33.664Z,44.18
2022-08-17T11:38:02.819Z,42.29
2022-08-17T11:39:13.289Z,41.59
2022-08-17T11:40:28.104Z,43.06
2022-08-17T11:41:41.365Z,42.66
2022-08-17T11:43:03.369Z,42.44
2022-08-17T11:44:43.237Z,41.83
2022-08-17T11:45:53.616Z,42.10
2022-08-17T11:47:38.826Z,41.87
2022-08-17T11:49:04.926Z,41.99
2022-08-17T11:50:43.066Z,42.63
2022-08-17T11:52:12.115Z,43.09
2022-08-17T11:53:37.128Z,42.82
2022-08-17T11:54:48.914Z,41.66
2022-08-17T11:55:53.080Z,42.26
2022-08-17T11:56:55.056Z,41.16
2022-08-17T11:58:01.653Z,40.35
2022-08-17T11:59:32.688Z,40.62
2022-08-17T12:00:46.525Z,40.76
2022-08-17T12:01:57.007Z,40.25
2022-08-17T12:03:22.464Z,41.32
2022-08-17T12:04:29.522Z,42.31
2022-08-17T12:05:34.098Z,42.62
2022-08-17T12:06:59.758Z,42.97
2022-08-17T12:08:19.728Z,41.61
2022-08-17T12:09:26.353Z,40.00
2022-08-17T12:10:32.788Z,40.40
2022-08-17T12:12:12.893Z,40.42
2022-08-17T12:13:19.050Z,40.35
2022-08-17T12:15:05.712Z,40.72
2022-08-17T12:15:56.092Z,41.07
2022-08-17T12:17:41.498Z,41.02
2022-08-17T12:18:58.494Z,38.95
2022-08-17T12:20:15.053Z,39.27
2022-08-17T12:21:41.037Z,39.41
2022-08-17T12:23:11.763Z,39.42
2022-08-17T12:24:23.110Z,39.56
2022-08-17T12:25:52.798Z,39.02
2022-08-17T12:27:00.393Z,39.77
2022-08-17T12:28:06.099Z,39.50
2022-08-17T12:29:18.171Z,39.45
2022-08-17T12:30:38.169Z,38.68
2022-08-17T12:31:47.190Z,38.19
2022-08-17T12:32:50.059Z,37.67
2022-08-17T12:33:52.265Z,37.48
2022-08-17T12:34:54.036Z,37.96
2022-08-17T12:36:05.916Z,37.84
2022-08-17T12:37:19.891Z,38.78
2022-08-17T12:38:32.461Z,38.73
2022-08-17T12:39:35.240Z,39.53
2022-08-17T12:40:37.903Z,40.03
2022-08-17T12:41:47.056Z,39.29
2022-08-17T12:43:19.549Z,38.54
2022-08-17T12:44:31.472Z,38.03
2022-08-17T12:45:36.406Z,37.69
2022-08-17T12:47:10.639Z,38.57
2022-08-17T12:48:21.550Z,39.46
2022-08-17T12:49:36.893Z,38.64
2022-08-17T12:50:42.428Z,38.49
2022-08-17T12:51:46.765Z,38.48
2022-08-17T12:52:48.655Z,38.74
2022-08-17T12:53:55.095Z,37.65
2022-08-17T12:55:03.023Z,38.33
2022-08-17T12:56:12.585Z,38.26
2022-08-17T12:57:32.711Z,36.75
2022-08-17T12:58:47.480Z,36.24
2022-08-17T12:59:54.976Z,35.22
2022-08-17T13:01:14.985Z,37.85
2022-08-17T13:02:30.001Z,36.29
2022-08-17T13:03:44.067Z,35.63
2022-08-17T13:04:46.221Z,35.92
2022-08-17T13:05:58.597Z,35.45
2022-08-17T13:07:00.447Z,35.83
2022-08-17T13:08:13.458Z,34.67
2022-08-17T13:09:35.561Z,34.63
2022-08-17T13:10:42.378Z,36.10
2022-08-17T13:11:58.379Z,36.28
2022-08-17T13:13:17.738Z,35.43
2022-08-17T13:14:21.977Z,35.29
2022-08-17T13:15:44.928Z,35.55
2022-08-17T13:16:51.333Z,34.83
2022-08-17T13:18:01.078Z,34.92
2022-08-17T13:19:40.371Z,35.74
2022-08-17T13:20:54.183Z,34.58
2022-08-17T13:22:01.874Z,35.96
2022-08-17T13:23:12.392Z,35.51
2022-08-17T13:24:24.121Z,35.28
2022-08-17T13:25:27.781Z,36.26
2022-08-17T13:26:42.142Z,36.90
2022-08-17T13:27:45.978Z,35.54
2022-08-17T13:28:51.678Z,35.37
2022-08-17T13:29:59.573Z,35.34
2022-08-17T13:31:37.469Z,35.26
2022-08-17T13:32:56.519Z,36.39
2022-08-17T13:34:26.880Z,35.74
2022-08-17T13:35:49.305Z,35.39
2022-08-17T13:37:28.888Z,34.77
2022-08-17T13:38:49.531Z,34.47
2022-08-17T13:39:53.162Z,34.49
2022-08-17T13:40:54.852Z,35.25
2022-08-17T13:41:56.564Z,35.68
2022-08-17T13:42:58.927Z,36.18
2022-08-17T13:44:01.241Z,37.67
2022-08-17T13:45:34.784Z,38.59
2022-08-17T13:46:31.292Z,39.60
2022-08-17T13:47:34.328Z,40.48
2022-08-17T13:48:36.559Z,41.54
2022-08-17T13:49:48.147Z,42.21
2022-08-17T13:50:56.801Z,42.15
2022-08-17T13:51:58.850Z,43.46
2022-08-17T13:53:14.914Z,43.35
2022-08-17T13:54:27.769Z,44.22
2022-08-17T13:55:32.094Z,44.71
2022-08-17T13:56:40.445Z,44.93
2022-08-17T13:57:46.813Z,45.76
2022-08-17T13:59:00.602Z,45.54
2022-08-17T14:00:18.798Z,45.28
2022-08-17T14:01:32.818Z,45.76
2022-08-17T14:02:34.566Z,46.29
2022-08-17T14:03:36.266Z,46.74
2022-08-17T14:04:42.322Z,46.92
2022-08-17T14:05:45.962Z,47.56
2022-08-17T14:07:21.528Z,48.44
2022-08-17T14:08:23.980Z,49.49
2022-08-17T14:09:36.805Z,49.82
2022-08-17T14:10:39.019Z,50.39
2022-08-17T14:11:41.992Z,50.78
2022-08-17T14:12:45.526Z,51.39
2022-08-17T14:13:47.265Z,51.70
2022-08-17T14:14:49.744Z,51.76
2022-08-17T14:15:55.201Z,52.31
2022-08-17T14:16:58.393Z,53.29
2022-08-17T14:18:00.518Z,53.88
2022-08-17T14:19:02.253Z,54.47
2022-08-17T14:20:06.482Z,53.95
2022-08-17T14:21:09.717Z,53.80
2022-08-17T14:22:19.527Z,52.37
2022-08-17T14:23:21.353Z,51.82
2022-08-17T14:24:44.695Z,50.28
2022-08-17T14:25:47.000Z,49.19
2022-08-17T14:26:52.133Z,47.57
2022-08-17T14:27:55.058Z,46.66
2022-08-17T14:28:57.224Z,45.03
2022-08-17T14:30:01.733Z,43.96
2022-08-17T14:31:03.564Z,43.77
2022-08-17T14:32:23.009Z,44.09
2022-08-17T14:33:24.821Z,42.90
2022-08-17T14:34:26.492Z,42.27
2022-08-17T14:35:29.543Z,41.87
2022-08-17T14:36:31.255Z,42.79
2022-08-17T14:37:34.416Z,43.26
2022-08-17T14:38:37.234Z,43.64
2022-08-17T14:39:39.404Z,42.54
2022-08-17T14:40:41.687Z,41.79
2022-08-17T14:41:43.806Z,42.46
2022-08-17T14:42:46.086Z,42.89
2022-08-17T14:43:47.800Z,42.67
2022-08-17T14:44:51.002Z,43.58
2022-08-17T14:45:52.731Z,44.67
2022-08-17T14:46:54.452Z,45.78
2022-08-17T14:47:56.121Z,45.73
2022-08-17T14:48:59.690Z,45.29
2022-08-17T14:50:02.657Z,45.38
2022-08-17T14:51:05.464Z,46.13
2022-08-17T14:52:07.192Z,46.81
2022-08-17T14:53:12.298Z,47.05
2022-08-17T14:54:33.013Z,46.91
2022-08-17T14:55:39.732Z,47.66
2022-08-17T14:56:41.397Z,48.10
2022-08-17T14:57:47.108Z,48.78
2022-08-17T14:58:49.130Z,48.89
2022-08-17T14:59:54.725Z,48.51
2022-08-17T15:00:57.691Z,48.48
2022-08-17T15:02:00.782Z,48.41
2022-08-17T15:03:04.096Z,48.20
2022-08-17T15:04:06.207Z,48.42
2022-08-17T15:05:08.460Z,48.39
2022-08-17T15:06:14.544Z,48.44
2022-08-17T15:07:18.597Z,48.23
2022-08-17T15:08:20.302Z,47.98
2022-08-17T15:09:22.064Z,48.42
2022-08-17T15:10:25.925Z,48.67
2022-08-17T15:11:27.742Z,49.10
2022-08-17T15:12:34.343Z,48.53
2022-08-17T15:13:37.259Z,48.60
2022-08-17T15:14:54.248Z,48.94
2022-08-17T15:15:56.943Z,49.18
2022-08-17T15:16:59.654Z,47.87
2022-08-17T15:18:02.604Z,47.33
2022-08-17T15:19:06.646Z,47.08
2022-08-17T15:20:14.565Z,46.30
2022-08-17T15:21:18.157Z,44.92
2022-08-17T15:22:27.368Z,43.98